Thursday, January 17, 2019, 6:02 AM EST
Back to Local

KPNE, N.e. Philadelphia Airport

Location: Philadelphia, PA, United States Lat: 40.083
Local Time: 6:02 AM EST (11:02 GMT) Lon: -75.017
Time Zone: US/Eastern Elev: 121 ft

Show me the last for .
Show Coded

Time T Td Feel RH Dir Speed Gust Alt SLP Vis Weather Sky Remarks
2019-01-17 04:54 30 15 21 53 360° 10 - 30.34 30.34 10 CLR None
2019-01-17 03:54 32 16 24 51 10° 10 - 30.33 30.33 10 CLR None
2019-01-17 02:54 31 15 25 51 360° 6 - 30.33 30.32 10 CLR None
2019-01-17 01:54 31 18 25 58 360° 6 - 30.31 30.31 10 CLR None
2019-01-17 00:54 35 20 29 53 330° 8 - 30.29 30.29 10 FEW046 6-hr Min Temp (1am): 34.0°F
6-hr Max Temp (1am): 39.0°F
2019-01-16 23:54 34 22 28 60 280° 7 - 30.27 30.27 10 OVC049 24-hr Min Temp (12am): 26.1°F
24-hr Max Temp (12am): 39.9°F
2019-01-16 22:54 35 22 30 58 260° 6 - 30.25 30.25 10 SCT049 None
2019-01-16 21:54 36 22 30 56 270° 8 - 30.23 30.23 10 FEW050 None
2019-01-16 20:54 36 22 29 56 270° 9 - 30.21 30.21 10 CLR None
2019-01-16 19:54 36 21 30 54 260° 8 - 30.20 30.20 10 SCT055 None
2019-01-16 18:54 39 21 31 48 270° 14 - 30.18 30.18 10 SCT049 6-hr Min Temp (7pm): 39.0°F
6-hr Max Temp (7pm): 39.9°F
2019-01-16 17:54 40 23 33 50 300° 13 - 30.17 30.17 10 OVC043 None
2019-01-16 16:54 40 25 33 54 280° 12 - 30.14 30.14 10 OVC041 None
2019-01-16 15:54 40 25 32 54 270° 14 - 30.12 30.11 10 OVC040 None
2019-01-16 14:54 40 25 33 54 280° 13 - 30.10 30.10 10 OVC037 None
2019-01-16 13:54 40 25 33 54 270° 13 - 30.10 30.10 10 OVC037 None
2019-01-16 12:54 39 25 32 56 270° 12 - 30.10 30.10 10 OVC035 6-hr Min Temp (1pm): 30.0°F
6-hr Max Temp (1pm): 39.0°F
2019-01-16 11:54 38 25 32 59 250° 8 - 30.12 30.12 9 OVC033 None
2019-01-16 10:54 37 25 30 61 260° 10 - 30.14 30.14 9 OVC030 None
2019-01-16 09:54 35 24 30 63 240° 6 - 30.14 30.14 9 OVC030 None
2019-01-16 08:54 34 23 27 63 250° 8 - 30.12 30.12 9 OVC030 None
2019-01-16 07:54 32 22 25 65 240° 8 - 30.10 30.10 9 OVC031 None
2019-01-16 07:37 32 22 26 65 240° 6 - 30.10 - 9 OVC030 None
2019-01-16 06:54 30 21 24 68 230° 6 - 30.10 30.10 9 OVC029 6-hr Min Temp (7am): 26.1°F
6-hr Max Temp (7am): 30.0°F
2019-01-16 06:51 30 21 24 68 230° 6 - 30.10 - 9 OVC029 None

Support USWX by starting your Amazon purchase here.